Time;durP1;ratioP1;P1;durP2;ratioP2;P2;SDS_P1;SDS_P2;PMS_P1;PMS_P2;Temp;Humidity;BMP_temperature;BMP_pressure;BME280_temperature;BME280_humidity;BME280_pressure;Samples;Min_cycle;Max_cycle;Signal;HPM_P1;HPM_P2
2021/05/12 00:01:22;;;;;;;19.08;9.50;;;12.50;99.90;;;;;;5111471;28;20550;-53
2021/05/12 00:03:48;;;;;;;19.60;10.90;;;12.50;99.90;;;;;;5112509;28;20015;-53
2021/05/12 00:06:13;;;;;;;22.73;10.80;;;12.40;99.90;;;;;;5107800;28;20088;-53
2021/05/12 00:08:39;;;;;;;19.25;10.55;;;12.40;99.90;;;;;;5112817;28;20028;-53
2021/05/12 00:11:04;;;;;;;22.50;10.93;;;12.40;99.90;;;;;;5106735;27;20533;-54
2021/05/12 00:13:30;;;;;;;31.98;12.15;;;12.40;99.90;;;;;;5111485;28;20405;-54
2021/05/12 00:15:55;;;;;;;19.00;10.80;;;12.40;99.90;;;;;;5104891;28;20126;-55
2021/05/12 00:18:23;;;;;;;27.23;11.93;;;12.50;99.90;;;;;;5111653;28;20031;-53
2021/05/12 00:20:50;;;;;;;25.13;11.60;;;12.40;99.90;;;;;;5106497;28;20036;-55
2021/05/12 00:23:19;;;;;;;22.65;10.70;;;12.40;99.90;;;;;;5110805;28;20179;-53
2021/05/12 00:25:45;;;;;;;19.88;11.43;;;12.30;99.90;;;;;;5108725;28;20039;-55
2021/05/12 00:28:11;;;;;;;24.33;12.43;;;12.30;99.90;;;;;;5111560;28;20023;-53
2021/05/12 00:30:36;;;;;;;21.20;10.95;;;12.30;99.90;;;;;;5110093;28;20572;-53
2021/05/12 00:33:02;;;;;;;33.28;12.48;;;12.20;99.90;;;;;;5112417;28;20393;-52
2021/05/12 00:35:27;;;;;;;31.23;13.10;;;12.10;99.90;;;;;;5108476;28;20118;-55
2021/05/12 00:37:53;;;;;;;25.30;12.35;;;12.10;99.90;;;;;;5108407;28;20062;-56
2021/05/12 00:40:19;;;;;;;23.90;11.25;;;12.00;99.90;;;;;;5111073;28;20299;-54
2021/05/12 00:42:46;;;;;;;21.80;12.73;;;12.00;99.90;;;;;;5110979;28;20028;-55
2021/05/12 00:45:13;;;;;;;28.70;14.40;;;12.00;99.90;;;;;;5107948;28;20099;-52
2021/05/12 00:47:39;;;;;;;25.08;12.85;;;12.00;99.90;;;;;;5111050;28;20024;-53
2021/05/12 00:50:06;;;;;;;35.03;12.65;;;12.00;99.90;;;;;;5111211;28;20023;-53
2021/05/12 00:52:32;;;;;;;28.00;13.18;;;12.10;99.90;;;;;;5110767;28;20023;-56
2021/05/12 00:54:57;;;;;;;39.80;13.30;;;12.00;99.90;;;;;;5108876;28;20035;-52
2021/05/12 00:57:23;;;;;;;22.15;13.55;;;12.00;99.90;;;;;;5103587;28;20035;-52
2021/05/12 00:59:52;;;;;;;33.28;14.57;;;11.90;99.90;;;;;;5105001;28;20046;-53
2021/05/12 01:02:19;;;;;;;33.30;13.85;;;11.80;99.90;;;;;;5101087;28;20028;-56
2021/05/12 01:04:45;;;;;;;30.23;14.73;;;11.90;99.90;;;;;;5107139;28;20415;-54
2021/05/12 01:07:10;;;;;;;30.92;13.07;;;12.00;99.90;;;;;;5104647;28;20020;-52
2021/05/12 01:09:36;;;;;;;36.03;14.43;;;12.00;99.90;;;;;;5106282;28;20080;-56
2021/05/12 01:12:03;;;;;;;26.92;13.05;;;12.00;99.90;;;;;;5105260;28;20031;-55
2021/05/12 01:14:29;;;;;;;32.92;13.55;;;12.00;99.90;;;;;;5109312;28;20076;-56
2021/05/12 01:16:55;;;;;;;25.63;12.48;;;12.00;99.90;;;;;;5110688;28;20038;-54
2021/05/12 01:19:21;;;;;;;21.35;12.60;;;12.10;99.90;;;;;;5110168;28;20032;-53
2021/05/12 01:21:46;;;;;;;27.75;12.88;;;12.10;99.90;;;;;;5110563;28;20115;-56
2021/05/12 01:24:12;;;;;;;31.35;13.85;;;12.10;99.90;;;;;;5112353;28;20374;-54
2021/05/12 01:26:38;;;;;;;31.80;15.10;;;12.10;99.90;;;;;;5107730;28;20086;-54
2021/05/12 01:29:05;;;;;;;25.23;12.90;;;12.10;99.90;;;;;;5108437;28;20458;-55
2021/05/12 01:31:31;;;;;;;26.80;13.57;;;12.10;99.90;;;;;;5106833;28;20020;-55
2021/05/12 01:33:57;;;;;;;22.88;13.27;;;12.10;99.90;;;;;;5111245;28;20507;-56
2021/05/12 01:36:23;;;;;;;20.80;11.68;;;12.10;99.90;;;;;;5108083;28;20082;-53
2021/05/12 01:38:50;;;;;;;32.80;13.73;;;12.20;99.90;;;;;;5114933;28;20032;-56
2021/05/12 01:41:18;;;;;;;22.63;11.73;;;12.20;99.90;;;;;;5105765;28;20043;-52
2021/05/12 01:43:44;;;;;;;23.25;12.27;;;12.20;99.90;;;;;;5113567;28;20028;-56
2021/05/12 01:46:11;;;;;;;21.13;12.60;;;12.20;99.90;;;;;;5114323;28;20080;-54
2021/05/12 01:48:37;;;;;;;31.40;13.45;;;12.30;99.90;;;;;;5114786;28;20020;-56
2021/05/12 01:51:04;;;;;;;23.42;13.00;;;12.20;99.90;;;;;;5111839;28;20024;-55
2021/05/12 01:53:30;;;;;;;22.10;12.43;;;12.20;99.90;;;;;;5115648;28;20015;-56
2021/05/12 01:55:55;;;;;;;21.08;13.35;;;12.20;99.90;;;;;;5114314;28;20027;-54
2021/05/12 01:58:23;;;;;;;24.65;13.90;;;12.20;99.90;;;;;;5113192;28;20032;-52
2021/05/12 02:00:50;;;;;;;28.92;14.10;;;12.10;99.90;;;;;;5114316;28;20046;-55
2021/05/12 02:03:17;;;;;;;25.33;13.82;;;12.10;99.90;;;;;;5112841;28;20020;-56
2021/05/12 02:05:44;;;;;;;29.70;14.15;;;12.00;99.90;;;;;;5111255;28;20023;-53
2021/05/12 02:08:14;;;;;;;22.77;13.85;;;12.00;99.90;;;;;;5108957;28;20474;-55
2021/05/12 02:10:42;;;;;;;29.48;14.13;;;12.00;99.90;;;;;;5107135;28;20043;-57
2021/05/12 02:13:09;;;;;;;22.75;14.23;;;11.90;99.90;;;;;;5105733;28;20027;-56
2021/05/12 02:15:34;;;;;;;27.52;14.90;;;12.00;99.90;;;;;;5110175;28;20031;-55
2021/05/12 02:18:00;;;;;;;23.67;14.07;;;11.90;99.90;;;;;;5111046;28;20027;-57
2021/05/12 02:20:31;;;;;;;25.90;13.07;;;12.00;99.90;;;;;;5110116;28;20036;-55
2021/05/12 02:22:58;;;;;;;24.65;13.52;;;12.00;99.90;;;;;;5110902;28;20028;-55
2021/05/12 02:25:24;;;;;;;24.73;11.88;;;12.10;99.90;;;;;;5109229;28;20024;-55
2021/05/12 02:27:50;;;;;;;22.80;12.77;;;12.20;99.90;;;;;;5108301;28;20043;-56
2021/05/12 02:30:16;;;;;;;27.98;12.25;;;12.20;99.90;;;;;;5104451;28;20023;-55
2021/05/12 02:32:42;;;;;;;23.55;12.95;;;12.20;99.90;;;;;;5107865;28;20035;-53
2021/05/12 02:35:09;;;;;;;27.52;12.88;;;12.20;99.90;;;;;;5108248;28;20099;-56
2021/05/12 02:37:35;;;;;;;22.83;13.43;;;12.20;99.90;;;;;;5103699;28;20034;-55
2021/05/12 02:40:04;;;;;;;29.55;13.68;;;12.10;99.90;;;;;;5113099;28;20035;-56
2021/05/12 02:42:29;;;;;;;22.05;11.48;;;12.10;99.90;;;;;;5107689;28;20030;-55
2021/05/12 02:44:55;;;;;;;25.20;12.23;;;12.20;99.90;;;;;;5114128;28;20024;-54
2021/05/12 02:47:20;;;;;;;25.40;12.57;;;12.20;99.90;;;;;;5112355;28;20020;-52
2021/05/12 02:49:46;;;;;;;24.40;12.15;;;12.20;99.90;;;;;;5110265;28;20023;-54
2021/05/12 02:52:11;;;;;;;24.23;10.98;;;12.20;99.90;;;;;;5112898;28;20481;-54
2021/05/12 02:54:38;;;;;;;19.08;11.25;;;12.30;99.90;;;;;;5106562;28;20412;-55
2021/05/12 02:57:04;;;;;;;21.73;11.45;;;12.30;99.90;;;;;;5111056;28;20079;-56
2021/05/12 02:59:30;;;;;;;26.70;12.75;;;12.30;99.90;;;;;;5113501;28;20382;-56
2021/05/12 03:01:55;;;;;;;21.13;10.02;;;12.40;99.90;;;;;;5113103;28;20053;-52
2021/05/12 03:04:21;;;;;;;16.17;10.88;;;12.40;99.90;;;;;;5112833;28;20028;-56
2021/05/12 03:06:47;;;;;;;25.02;12.93;;;12.40;99.90;;;;;;5105112;28;20034;-54
2021/05/12 03:09:13;;;;;;;26.27;12.43;;;12.30;99.90;;;;;;5113387;28;20055;-57
2021/05/12 03:11:39;;;;;;;25.60;11.90;;;12.30;99.90;;;;;;5106080;28;20542;-57
2021/05/12 03:14:06;;;;;;;26.20;12.80;;;12.30;99.90;;;;;;5109992;28;20031;-54
2021/05/12 03:16:32;;;;;;;28.55;12.27;;;12.30;99.90;;;;;;5113542;28;20024;-54
2021/05/12 03:18:58;;;;;;;30.42;11.65;;;12.30;99.90;;;;;;5113018;28;20458;-56
2021/05/12 03:21:24;;;;;;;19.10;11.38;;;12.40;99.90;;;;;;5110068;28;20031;-52
2021/05/12 03:23:50;;;;;;;24.05;12.63;;;12.40;99.90;;;;;;5109652;28;20240;-52
2021/05/12 03:26:17;;;;;;;29.10;13.15;;;12.40;99.90;;;;;;5112765;28;20520;-54
2021/05/12 03:28:44;;;;;;;30.30;12.77;;;12.30;99.90;;;;;;5108961;28;20051;-55
2021/05/12 03:31:10;;;;;;;28.70;12.73;;;12.30;99.90;;;;;;5112303;28;20106;-56
2021/05/12 03:33:36;;;;;;;23.27;12.77;;;12.20;99.90;;;;;;5111980;28;20382;-53
2021/05/12 03:36:02;;;;;;;22.85;11.13;;;12.20;99.90;;;;;;5110945;28;20036;-54
2021/05/12 03:38:27;;;;;;;32.78;14.77;;;12.20;99.90;;;;;;5112231;28;20031;-54
2021/05/12 03:40:53;;;;;;;30.90;13.93;;;12.10;99.90;;;;;;5112066;28;20034;-56
2021/05/12 03:43:18;;;;;;;23.10;13.35;;;12.00;99.90;;;;;;5112993;28;20157;-55
2021/05/12 03:45:44;;;;;;;32.08;14.50;;;12.00;99.90;;;;;;5110838;28;20114;-54
2021/05/12 03:48:10;;;;;;;24.45;13.13;;;12.00;99.90;;;;;;5113035;28;20087;-57
2021/05/12 03:50:36;;;;;;;33.35;14.20;;;12.00;99.90;;;;;;5110710;28;20509;-52
2021/05/12 03:53:01;;;;;;;30.90;14.60;;;11.90;99.90;;;;;;5112533;28;20036;-56
2021/05/12 03:55:27;;;;;;;26.85;13.25;;;11.90;99.90;;;;;;5111912;28;20035;-52
2021/05/12 03:57:53;;;;;;;25.50;12.52;;;11.90;99.90;;;;;;5112050;28;20385;-52
2021/05/12 04:00:19;;;;;;;23.42;12.70;;;11.90;99.90;;;;;;5111803;28;20374;-55
2021/05/12 04:02:45;;;;;;;25.88;13.95;;;11.90;99.90;;;;;;5109372;28;20370;-54
2021/05/12 04:05:13;;;;;;;24.70;12.90;;;11.90;99.90;;;;;;5111876;28;20030;-52
2021/05/12 04:07:39;;;;;;;23.55;13.13;;;12.00;99.90;;;;;;5109625;28;20028;-54
2021/05/12 04:10:06;;;;;;;27.42;13.25;;;12.00;99.90;;;;;;5110688;28;20568;-53
2021/05/12 04:12:32;;;;;;;28.13;12.88;;;12.00;99.90;;;;;;5111838;28;20036;-56
2021/05/12 04:14:57;;;;;;;24.15;12.98;;;12.00;99.90;;;;;;5111768;28;20054;-56
2021/05/12 04:17:23;;;;;;;21.65;12.50;;;11.90;99.90;;;;;;5112037;28;20023;-56
2021/05/12 04:19:48;;;;;;;24.08;12.75;;;12.00;99.90;;;;;;5111814;28;20038;-55
2021/05/12 04:22:15;;;;;;;21.25;11.48;;;12.00;99.90;;;;;;5110640;28;20035;-55
2021/05/12 04:24:41;;;;;;;28.77;12.40;;;12.00;99.90;;;;;;5112020;28;20016;-56
2021/05/12 04:27:07;;;;;;;32.42;13.35;;;12.10;99.90;;;;;;5111260;28;20077;-56
2021/05/12 04:29:33;;;;;;;26.65;12.63;;;12.10;99.90;;;;;;5110799;28;20417;-56
2021/05/12 04:31:58;;;;;;;26.38;13.18;;;12.10;99.90;;;;;;5110843;28;20066;-56
2021/05/12 04:34:24;;;;;;;27.48;12.93;;;12.20;99.90;;;;;;5111695;27;20112;-54
2021/05/12 04:36:49;;;;;;;24.52;13.18;;;12.20;99.90;;;;;;5104290;28;20031;-52
2021/05/12 04:39:15;;;;;;;27.35;14.05;;;12.20;99.90;;;;;;5110865;28;20023;-56
2021/05/12 04:41:40;;;;;;;24.88;13.10;;;12.30;99.90;;;;;;5110858;27;20031;-57
2021/05/12 04:44:06;;;;;;;24.75;13.38;;;12.30;99.90;;;;;;5111728;28;20068;-53
2021/05/12 04:46:32;;;;;;;29.27;13.88;;;12.30;99.90;;;;;;5111306;28;20019;-56
2021/05/12 04:48:57;;;;;;;30.23;15.05;;;12.30;99.90;;;;;;5111268;28;20102;-54
2021/05/12 04:51:23;;;;;;;29.77;14.07;;;12.30;99.90;;;;;;5108286;28;20026;-56
2021/05/12 04:53:49;;;;;;;27.50;14.38;;;12.20;99.90;;;;;;5108506;28;20028;-55
2021/05/12 04:56:16;;;;;;;26.63;14.48;;;12.30;99.90;;;;;;5111070;28;20063;-54
2021/05/12 04:58:42;;;;;;;28.70;14.57;;;12.20;99.90;;;;;;5112078;28;20514;-52
2021/05/12 05:01:07;;;;;;;25.42;15.23;;;12.20;99.90;;;;;;5107866;28;20043;-53
2021/05/12 05:03:40;;;;;;;26.85;14.32;;;12.20;99.90;;;;;;5110728;28;20035;-56
2021/05/12 05:06:05;;;;;;;31.05;14.40;;;12.30;99.90;;;;;;5111040;27;20020;-55
2021/05/12 05:08:31;;;;;;;25.23;14.35;;;12.30;99.90;;;;;;5110879;28;20077;-56
2021/05/12 05:10:56;;;;;;;24.23;13.73;;;12.40;99.90;;;;;;5108479;28;20080;-55
2021/05/12 05:13:22;;;;;;;28.27;14.73;;;12.40;99.90;;;;;;5112096;28;20473;-55
2021/05/12 05:15:47;;;;;;;23.00;13.57;;;12.50;99.90;;;;;;5109542;28;20046;-56
2021/05/12 05:18:14;;;;;;;24.00;14.70;;;12.50;99.90;;;;;;5110385;28;20027;-52
2021/05/12 05:20:39;;;;;;;26.27;14.60;;;12.40;99.90;;;;;;5107043;28;20114;-56
2021/05/12 05:23:05;;;;;;;32.58;14.73;;;12.50;99.90;;;;;;5110691;28;20118;-54
2021/05/12 05:25:31;;;;;;;28.95;12.95;;;12.50;99.90;;;;;;5109060;28;20058;-56
2021/05/12 05:27:57;;;;;;;30.75;13.68;;;12.50;99.90;;;;;;5109305;28;20093;-56
2021/05/12 05:30:22;;;;;;;22.40;13.90;;;12.60;99.90;;;;;;5109233;28;20580;-55
2021/05/12 05:32:48;;;;;;;27.45;13.52;;;12.70;99.90;;;;;;5106390;28;20024;-52
2021/05/12 05:35:14;;;;;;;27.02;11.93;;;12.60;99.90;;;;;;5103321;28;20028;-55
2021/05/12 05:37:39;;;;;;;23.88;12.32;;;12.60;99.90;;;;;;5103398;28;20104;-54
2021/05/12 05:40:14;;;;;;;22.90;12.00;;;12.60;99.90;;;;;;5098109;28;20074;-57
2021/05/12 05:42:39;;;;;;;22.75;12.23;;;12.60;99.90;;;;;;5106555;28;20028;-57
2021/05/12 05:45:06;;;;;;;26.13;11.00;;;12.70;99.90;;;;;;5107007;28;20358;-57
2021/05/12 05:47:31;;;;;;;27.75;11.48;;;12.70;99.90;;;;;;5110104;28;20023;-58
2021/05/12 05:49:57;;;;;;;31.25;11.52;;;12.70;99.90;;;;;;5105119;28;20032;-54
2021/05/12 05:52:22;;;;;;;23.60;11.05;;;12.70;99.90;;;;;;5098591;28;20161;-54
2021/05/12 05:54:48;;;;;;;25.02;9.43;;;12.80;99.90;;;;;;5098753;28;20072;-57
2021/05/12 05:57:15;;;;;;;20.25;9.23;;;12.70;99.90;;;;;;5103984;28;20110;-54
2021/05/12 05:59:41;;;;;;;16.55;8.57;;;12.80;99.90;;;;;;5103129;28;20032;-53
2021/05/12 06:02:08;;;;;;;17.75;8.23;;;12.80;99.90;;;;;;5086258;28;20111;-52
2021/05/12 06:04:34;;;;;;;21.58;8.65;;;12.90;99.90;;;;;;5107589;28;20016;-51
2021/05/12 06:06:59;;;;;;;21.38;8.73;;;12.90;99.90;;;;;;5105778;28;20545;-57
2021/05/12 06:09:25;;;;;;;16.95;8.45;;;12.80;99.90;;;;;;5107991;28;20026;-53
2021/05/12 06:11:52;;;;;;;17.70;8.13;;;12.90;99.90;;;;;;5108083;28;20027;-53
2021/05/12 06:14:19;;;;;;;16.10;7.53;;;13.00;99.90;;;;;;5107418;28;20499;-50
2021/05/12 06:16:46;;;;;;;20.80;8.02;;;13.00;99.90;;;;;;5103782;28;20020;-52
2021/05/12 06:19:11;;;;;;;19.08;8.00;;;13.10;99.90;;;;;;5107063;28;20028;-59
2021/05/12 06:21:37;;;;;;;18.27;7.68;;;13.00;99.90;;;;;;5108325;28;20073;-57
2021/05/12 06:24:03;;;;;;;19.02;7.30;;;13.00;99.90;;;;;;5112069;28;20099;-53
2021/05/12 06:26:28;;;;;;;26.75;7.35;;;13.10;99.90;;;;;;5108645;27;20542;-52
2021/05/12 06:28:54;;;;;;;17.17;7.53;;;12.90;99.90;;;;;;5108835;28;20542;-56
2021/05/12 06:31:20;;;;;;;19.27;7.80;;;12.90;99.90;;;;;;5111419;28;20016;-55
2021/05/12 06:33:47;;;;;;;18.10;7.70;;;12.90;99.90;;;;;;5103835;28;20141;-52
2021/05/12 06:36:16;;;;;;;18.58;7.53;;;12.90;99.90;;;;;;5104900;28;20062;-56
2021/05/12 06:38:42;;;;;;;13.82;6.47;;;12.80;99.90;;;;;;5110441;28;20039;-53
2021/05/12 06:41:08;;;;;;;15.68;6.75;;;12.80;99.90;;;;;;5111283;28;20324;-53
2021/05/12 06:43:34;;;;;;;19.85;7.13;;;12.80;99.90;;;;;;5108554;28;20115;-50
2021/05/12 06:46:00;;;;;;;21.02;7.18;;;13.00;99.90;;;;;;5110277;28;20027;-52
2021/05/12 06:48:26;;;;;;;15.85;6.32;;;13.10;99.90;;;;;;5113307;28;20077;-52
2021/05/12 06:50:51;;;;;;;13.55;6.22;;;13.30;99.90;;;;;;5106768;28;20023;-56
2021/05/12 06:53:28;;;;;;;16.75;7.00;;;13.40;99.90;;;;;;5111816;28;20118;-56
2021/05/12 06:55:55;;;;;;;20.50;6.47;;;13.50;99.90;;;;;;5110680;28;20485;-55
2021/05/12 06:58:20;;;;;;;12.75;5.63;;;13.40;99.90;;;;;;5112470;28;20038;-50
2021/05/12 07:00:48;;;;;;;18.13;6.68;;;13.40;99.90;;;;;;5110516;28;20024;-55
2021/05/12 07:03:14;;;;;;;20.33;8.00;;;13.40;99.90;;;;;;5107151;28;20028;-55
2021/05/12 07:05:39;;;;;;;13.48;7.15;;;13.30;99.90;;;;;;5112284;28;20032;-51
2021/05/12 07:08:05;;;;;;;16.67;8.15;;;13.40;99.90;;;;;;5107299;28;20024;-54
2021/05/12 07:10:30;;;;;;;16.67;7.55;;;13.40;99.90;;;;;;5109424;28;20828;-55
2021/05/12 07:12:56;;;;;;;18.75;7.28;;;13.50;99.90;;;;;;5109613;28;20034;-56
2021/05/12 07:15:21;;;;;;;19.58;7.05;;;13.50;99.90;;;;;;5110371;28;20028;-54
2021/05/12 07:17:49;;;;;;;15.32;8.20;;;13.50;99.90;;;;;;5110381;28;20023;-57
2021/05/12 07:20:15;;;;;;;20.17;7.88;;;13.60;99.90;;;;;;5109659;28;20024;-55
2021/05/12 07:22:40;;;;;;;12.77;6.88;;;13.70;99.90;;;;;;5111840;28;20493;-57
2021/05/12 07:25:07;;;;;;;17.30;7.88;;;13.70;99.90;;;;;;5110647;28;20480;-56
2021/05/12 07:27:32;;;;;;;20.40;8.52;;;13.70;99.90;;;;;;5111825;28;20490;-53
2021/05/12 07:29:58;;;;;;;18.90;8.75;;;13.70;99.90;;;;;;5112059;28;20065;-55
2021/05/12 07:32:24;;;;;;;21.98;9.52;;;13.60;99.90;;;;;;5110591;28;20073;-56
2021/05/12 07:34:51;;;;;;;20.85;8.65;;;13.70;99.90;;;;;;5111720;27;20027;-56
2021/05/12 07:37:17;;;;;;;22.02;8.48;;;13.70;99.90;;;;;;5109652;28;20019;-55
2021/05/12 07:39:43;;;;;;;20.42;7.65;;;13.70;99.90;;;;;;5112206;28;20089;-53
2021/05/12 07:42:09;;;;;;;13.82;7.18;;;13.80;99.90;;;;;;5108641;28;20031;-55
2021/05/12 07:44:34;;;;;;;19.30;7.90;;;13.80;99.90;;;;;;5108020;28;20512;-55
2021/05/12 07:47:00;;;;;;;18.80;7.63;;;13.90;99.90;;;;;;5111302;28;20028;-56
2021/05/12 07:49:26;;;;;;;14.52;6.55;;;13.90;99.90;;;;;;5112019;28;20028;-54
2021/05/12 07:51:53;;;;;;;14.38;6.43;;;13.90;99.90;;;;;;5112101;28;20032;-57
2021/05/12 07:54:18;;;;;;;12.63;6.70;;;14.00;99.90;;;;;;5110600;28;20027;-56
2021/05/12 07:56:44;;;;;;;17.17;5.90;;;14.00;99.90;;;;;;5107909;28;20080;-52
2021/05/12 07:59:09;;;;;;;15.18;6.80;;;14.10;99.90;;;;;;5111695;28;20474;-52
2021/05/12 08:01:42;;;;;;;13.25;5.28;;;14.20;99.90;;;;;;5111214;28;20031;-54
2021/05/12 08:04:07;;;;;;;13.50;5.57;;;14.20;99.90;;;;;;5109449;28;20032;-52
2021/05/12 08:06:33;;;;;;;19.42;6.07;;;14.40;99.90;;;;;;5111730;28;20387;-52
2021/05/12 08:08:58;;;;;;;15.40;6.30;;;14.50;99.90;;;;;;5109341;28;20409;-55
2021/05/12 08:11:24;;;;;;;14.85;5.72;;;14.60;99.90;;;;;;5110386;28;20477;-53
2021/05/12 08:13:50;;;;;;;12.75;4.97;;;14.70;99.90;;;;;;5111941;28;20477;-57
2021/05/12 08:16:16;;;;;;;13.55;5.35;;;14.90;99.90;;;;;;5103396;28;20028;-55
2021/05/12 08:18:42;;;;;;;16.55;5.35;;;15.00;99.90;;;;;;5109007;28;20448;-57
2021/05/12 08:21:07;;;;;;;16.70;5.97;;;15.00;99.90;;;;;;5107919;28;20035;-54
2021/05/12 08:23:33;;;;;;;11.90;5.22;;;15.00;99.90;;;;;;5102398;28;20024;-56
2021/05/12 08:25:59;;;;;;;11.68;5.07;;;15.00;99.90;;;;;;5105098;28;20069;-53
2021/05/12 08:28:25;;;;;;;19.80;6.00;;;15.00;99.90;;;;;;5106114;28;20503;-57
2021/05/12 08:30:51;;;;;;;19.13;5.10;;;15.00;99.90;;;;;;5108060;27;20110;-55
2021/05/12 08:33:17;;;;;;;14.38;5.70;;;15.20;99.90;;;;;;5104112;28;20099;-57
2021/05/12 08:35:45;;;;;;;13.88;5.00;;;15.30;99.90;;;;;;5108924;28;20134;-53
2021/05/12 08:38:15;;;;;;;25.30;5.80;;;15.40;99.90;;;;;;5109324;28;20042;-57
2021/05/12 08:40:45;;;;;;;13.75;5.18;;;15.40;99.90;;;;;;5110413;28;20043;-54
2021/05/12 08:43:13;;;;;;;12.45;5.07;;;15.40;99.90;;;;;;5106912;28;20035;-54
2021/05/12 08:45:39;;;;;;;8.70;4.22;;;15.40;99.90;;;;;;5106629;28;20023;-53
2021/05/12 08:48:10;;;;;;;8.65;3.63;;;15.40;99.90;;;;;;5109909;28;20042;-57
2021/05/12 08:50:37;;;;;;;17.50;5.63;;;15.30;99.90;;;;;;5109136;28;20020;-52
2021/05/12 08:53:03;;;;;;;19.33;5.32;;;15.20;99.90;;;;;;5106583;28;20102;-57
2021/05/12 08:55:30;;;;;;;11.38;4.78;;;15.10;99.90;;;;;;5102563;28;20453;-55
2021/05/12 08:57:56;;;;;;;21.95;5.10;;;15.10;99.90;;;;;;5106798;28;20027;-57
2021/05/12 09:00:22;;;;;;;16.52;5.05;;;14.90;99.90;;;;;;5107591;28;20392;-55
2021/05/12 09:02:47;;;;;;;12.20;5.43;;;14.90;99.90;;;;;;5102674;28;20035;-57
2021/05/12 09:05:14;;;;;;;8.63;4.65;;;14.80;99.90;;;;;;5106039;28;20038;-56
2021/05/12 09:07:39;;;;;;;13.27;4.68;;;14.70;99.90;;;;;;5105005;28;20152;-54
2021/05/12 09:10:06;;;;;;;12.00;5.35;;;14.70;99.90;;;;;;5108360;28;20714;-55
2021/05/12 09:12:49;;;;;;;14.10;4.95;;;14.90;99.90;;;;;;5108474;28;20024;-55
2021/05/12 09:15:18;;;;;;;16.83;5.20;;;15.20;99.90;;;;;;5103989;28;20649;-57
2021/05/12 09:17:45;;;;;;;14.27;5.13;;;15.30;99.90;;;;;;5109607;28;20081;-54
2021/05/12 09:20:19;;;;;;;15.93;4.97;;;15.50;99.90;;;;;;5105657;28;20031;-54
2021/05/12 09:22:48;;;;;;;;;;;15.80;99.90;;;;;;5105360;28;20027;-53
2021/05/12 09:25:17;;;;;;;19.45;4.97;;;16.10;99.90;;;;;;5110596;28;19907;-58
2021/05/12 09:27:47;;;;;;;12.82;4.47;;;16.10;99.90;;;;;;5108588;28;20123;-56
2021/05/12 09:30:22;;;;;;;13.32;4.53;;;16.30;99.90;;;;;;5103561;28;20035;-58
2021/05/12 09:32:48;;;;;;;9.43;4.13;;;16.70;99.90;;;;;;5108285;28;20519;-54
2021/05/12 09:35:15;;;;;;;13.82;4.93;;;16.80;99.90;;;;;;5098306;28;20268;-60
2021/05/12 09:37:44;;;;;;;10.75;4.53;;;16.80;99.90;;;;;;5102814;28;20024;-57
2021/05/12 09:40:15;;;;;;;11.80;4.22;;;16.90;99.90;;;;;;5105119;28;20016;-55
2021/05/12 09:42:42;;;;;;;12.73;4.68;;;17.00;99.90;;;;;;5108854;28;20066;-56
2021/05/12 09:45:10;;;;;;;21.05;5.57;;;17.00;99.90;;;;;;5107043;28;20371;-57
2021/05/12 09:47:36;;;;;;;14.35;5.55;;;17.10;99.90;;;;;;5109037;28;20077;-56
2021/05/12 09:50:30;;;;;;;10.65;4.35;;;17.20;99.90;;;;;;5100421;28;20023;-58
2021/05/12 09:53:11;;;;;;;11.50;4.30;;;17.50;99.90;;;;;;5102630;28;20134;-58
2021/05/12 09:55:39;;;;;;;12.98;3.95;;;18.00;99.90;;;;;;5104934;28;20055;-58
2021/05/12 09:58:10;;;;;;;14.70;5.35;;;18.40;99.90;;;;;;5105861;28;20084;-57
2021/05/12 10:00:37;;;;;;;14.93;4.07;;;17.90;99.90;;;;;;5104860;28;20457;-58
2021/05/12 10:03:04;;;;;;;12.10;4.22;;;17.50;99.90;;;;;;5105779;28;20139;-57
2021/05/12 10:05:50;;;;;;;13.77;4.60;;;17.30;99.90;;;;;;5104188;28;20019;-55
2021/05/12 10:08:23;;;;;;;17.30;4.55;;;17.10;99.90;;;;;;5106527;28;20050;-56
2021/05/12 10:10:54;;;;;;;13.55;4.28;;;17.10;99.90;;;;;;5112402;28;20105;-58
2021/05/12 10:13:20;;;;;;;11.32;4.88;;;17.40;99.90;;;;;;5112682;28;20023;-57
2021/05/12 10:15:46;;;;;;;12.07;4.70;;;17.40;99.90;;;;;;5112841;28;20390;-58
2021/05/12 10:18:11;;;;;;;11.27;4.65;;;17.60;99.90;;;;;;5109217;28;20027;-57
2021/05/12 10:20:38;;;;;;;13.90;5.10;;;17.80;99.90;;;;;;5113955;27;20038;-56
2021/05/12 10:23:04;;;;;;;11.73;4.80;;;17.80;99.90;;;;;;5106194;28;20031;-54
2021/05/12 10:25:29;;;;;;;9.45;4.55;;;17.60;99.90;;;;;;5111058;28;20020;-57
2021/05/12 10:27:56;;;;;;;16.52;5.93;;;17.30;99.90;;;;;;5110984;27;20024;-56
2021/05/12 10:30:21;;;;;;;9.45;5.47;;;17.30;99.90;;;;;;5106630;28;20031;-55
2021/05/12 10:32:52;;;;;;;12.02;5.32;;;17.20;99.90;;;;;;5104725;28;20024;-54
2021/05/12 10:35:18;;;;;;;13.25;4.78;;;17.10;99.90;;;;;;5109814;28;20031;-53
2021/05/12 10:37:47;;;;;;;10.57;4.70;;;16.90;99.90;;;;;;5113276;28;20020;-53
2021/05/12 10:40:24;;;;;;;12.35;6.07;;;16.90;99.90;;;;;;5111615;27;20051;-57
2021/05/12 10:43:02;;;;;;;8.63;5.25;;;16.90;99.90;;;;;;5113598;28;20430;-58
2021/05/12 10:45:39;;;;;;;11.93;5.32;;;16.90;99.90;;;;;;5109745;28;20063;-56
2021/05/12 10:48:05;;;;;;;14.40;5.47;;;16.80;99.90;;;;;;5110809;28;20026;-53
2021/05/12 10:50:48;;;;;;;14.15;4.95;;;16.80;99.90;;;;;;5112013;28;20015;-56
2021/05/12 10:53:17;;;;;;;12.10;6.57;;;16.80;99.90;;;;;;5109118;28;20028;-55
2021/05/12 10:56:01;;;;;;;13.30;6.20;;;16.70;99.90;;;;;;5108773;27;20478;-54
2021/05/12 10:58:29;;;;;;;12.17;6.20;;;16.50;99.90;;;;;;5103841;28;20035;-56
2021/05/12 11:01:09;;;;;;;10.75;5.65;;;16.40;99.90;;;;;;5101824;28;20031;-56
2021/05/12 11:03:50;;;;;;;14.77;5.88;;;16.30;99.90;;;;;;5110731;27;20024;-54
2021/05/12 11:06:20;;;;;;;13.65;5.50;;;16.10;99.90;;;;;;5101658;28;20024;-54
2021/05/12 11:09:08;;;;;;;11.85;4.95;;;16.00;99.90;;;;;;5112028;28;20032;-56
2021/05/12 11:11:48;;;;;;;8.60;5.25;;;16.10;99.90;;;;;;5109681;28;20027;-57
2021/05/12 11:14:27;;;;;;;11.13;5.95;;;16.00;99.90;;;;;;5104417;28;20032;-55
2021/05/12 11:17:08;;;;;;;19.67;6.38;;;15.90;99.90;;;;;;5104873;28;20059;-57
2021/05/12 11:22:38;;;;;;;12.35;7.18;;;15.90;99.90;;;;;;5109392;28;20114;-56
2021/05/12 11:25:40;;;;;;;15.35;7.07;;;15.90;99.90;;;;;;5106601;28;20503;-56
2021/05/12 11:33:32;;;;;;;8.55;4.45;;;16.00;99.90;;;;;;5111265;28;20070;-58
2021/05/12 11:36:02;;;;;;;11.57;4.57;;;16.10;99.90;;;;;;5110264;28;20038;-57
2021/05/12 11:38:28;;;;;;;6.07;2.60;;;16.10;99.90;;;;;;5108609;28;20034;-55
2021/05/12 11:41:18;;;;;;;7.13;2.30;;;16.10;99.90;;;;;;5110432;28;20035;-55
2021/05/12 11:44:02;;;;;;;7.80;1.70;;;16.10;99.90;;;;;;5108572;28;20067;-55
2021/05/12 11:46:36;;;;;;;4.15;1.98;;;16.10;99.90;;;;;;5109092;28;20107;-57
2021/05/12 11:49:09;;;;;;;8.82;2.25;;;16.20;99.90;;;;;;5105759;28;20024;-59
2021/05/12 11:51:43;;;;;;;7.18;2.30;;;16.30;99.90;;;;;;5107762;28;20031;-57
2021/05/12 11:54:21;;;;;;;7.45;2.80;;;16.60;99.90;;;;;;5110610;28;20093;-57
2021/05/12 11:56:52;;;;;;;7.28;1.67;;;16.80;99.90;;;;;;5108341;28;20062;-58
2021/05/12 11:59:21;;;;;;;9.35;2.25;;;17.10;99.90;;;;;;5107420;28;20028;-57
2021/05/12 12:01:50;;;;;;;6.93;2.08;;;17.30;99.90;;;;;;5110313;28;20028;-56
2021/05/12 12:04:29;;;;;;;8.23;2.00;;;17.20;99.90;;;;;;5109136;28;20024;-58
2021/05/12 12:06:54;;;;;;;3.85;1.55;;;17.20;99.90;;;;;;5104712;28;20107;-59
2021/05/12 12:09:21;;;;;;;4.55;1.52;;;17.10;99.90;;;;;;5108678;28;20110;-57
2021/05/12 12:11:47;;;;;;;3.40;1.40;;;17.40;99.90;;;;;;5108823;28;20047;-57
2021/05/12 12:14:12;;;;;;;2.85;1.75;;;17.70;99.90;;;;;;5101525;28;20058;-58
2021/05/12 12:16:43;;;;;;;11.52;2.95;;;17.90;99.90;;;;;;5101645;28;20054;-59
2021/05/12 12:19:13;;;;;;;9.65;2.60;;;18.30;99.90;;;;;;5108036;28;20035;-54
2021/05/12 12:21:41;;;;;;;10.48;3.28;;;19.10;99.90;;;;;;5110693;28;20028;-54
2021/05/12 12:24:16;;;;;;;6.38;2.97;;;19.70;99.90;;;;;;5110549;28;20028;-60
2021/05/12 12:26:46;;;;;;;12.95;4.03;;;19.90;99.90;;;;;;5105085;28;20035;-58
2021/05/12 12:29:13;;;;;;;7.70;3.80;;;20.20;99.90;;;;;;5107809;27;20558;-58
2021/05/12 12:31:49;;;;;;;8.25;3.78;;;20.40;99.90;;;;;;5107736;28;20564;-58
2021/05/12 12:34:23;;;;;;;9.98;4.18;;;20.60;99.90;;;;;;5109420;28;20023;-58
2021/05/12 12:37:18;;;;;;;6.13;3.67;;;20.90;99.90;;;;;;5106838;28;20027;-58
2021/05/12 12:40:00;;;;;;;11.10;4.63;;;20.50;99.90;;;;;;5106365;28;20431;-60
2021/05/12 12:42:33;;;;;;;8.00;4.50;;;20.00;99.90;;;;;;5108556;28;20027;-59
2021/05/12 12:45:01;;;;;;;9.88;4.65;;;19.30;99.90;;;;;;5109031;28;20103;-57